sensor_id;sensor_type;location;lat;lon;timestamp;P1;durP1;ratioP1;P2;durP2;ratioP2
24739;SDS011;45234;48.148;17.128;2023-02-23T00:01:51;22.23;;;12.23;;
24739;SDS011;45234;48.148;17.128;2023-02-23T00:04:19;17.15;;;11.38;;
24739;SDS011;45234;48.148;17.128;2023-02-23T00:06:46;18.88;;;11.68;;
24739;SDS011;45234;48.148;17.128;2023-02-23T00:09:12;22.33;;;12.23;;
24739;SDS011;45234;48.148;17.128;2023-02-23T00:12:00;19.73;;;13.10;;
24739;SDS011;45234;48.148;17.128;2023-02-23T00:14:32;17.38;;;11.40;;
24739;SDS011;45234;48.148;17.128;2023-02-23T00:17:00;19.52;;;12.95;;
24739;SDS011;45234;48.148;17.128;2023-02-23T00:19:26;21.80;;;12.63;;
24739;SDS011;45234;48.148;17.128;2023-02-23T00:21:53;18.15;;;11.90;;
24739;SDS011;45234;48.148;17.128;2023-02-23T00:24:23;21.73;;;13.05;;
24739;SDS011;45234;48.148;17.128;2023-02-23T00:26:51;19.77;;;12.98;;
24739;SDS011;45234;48.148;17.128;2023-02-23T00:29:19;18.23;;;12.40;;
24739;SDS011;45234;48.148;17.128;2023-02-23T00:31:48;19.27;;;11.73;;
24739;SDS011;45234;48.148;17.128;2023-02-23T00:34:17;17.85;;;12.18;;
24739;SDS011;45234;48.148;17.128;2023-02-23T00:36:48;19.63;;;11.23;;
24739;SDS011;45234;48.148;17.128;2023-02-23T00:39:18;20.30;;;11.48;;
24739;SDS011;45234;48.148;17.128;2023-02-23T00:41:47;16.00;;;10.70;;
24739;SDS011;45234;48.148;17.128;2023-02-23T00:44:14;19.33;;;11.32;;
24739;SDS011;45234;48.148;17.128;2023-02-23T00:46:42;18.13;;;10.77;;
24739;SDS011;45234;48.148;17.128;2023-02-23T00:49:10;17.40;;;11.48;;
24739;SDS011;45234;48.148;17.128;2023-02-23T00:51:39;19.05;;;11.93;;
24739;SDS011;45234;48.148;17.128;2023-02-23T00:54:06;17.38;;;10.70;;
24739;SDS011;45234;48.148;17.128;2023-02-23T00:56:35;17.17;;;10.38;;
24739;SDS011;45234;48.148;17.128;2023-02-23T00:59:02;15.35;;;10.38;;
24739;SDS011;45234;48.148;17.128;2023-02-23T01:01:32;21.23;;;10.95;;
24739;SDS011;45234;48.148;17.128;2023-02-23T01:04:00;19.83;;;10.45;;
24739;SDS011;45234;48.148;17.128;2023-02-23T01:06:28;18.15;;;10.57;;
24739;SDS011;45234;48.148;17.128;2023-02-23T01:08:55;16.50;;;10.25;;
24739;SDS011;45234;48.148;17.128;2023-02-23T01:11:23;19.02;;;10.07;;
24739;SDS011;45234;48.148;17.128;2023-02-23T01:13:53;18.17;;;10.02;;
24739;SDS011;45234;48.148;17.128;2023-02-23T01:16:22;18.33;;;9.93;;
24739;SDS011;45234;48.148;17.128;2023-02-23T01:18:53;17.50;;;10.15;;
24739;SDS011;45234;48.148;17.128;2023-02-23T01:21:23;16.30;;;9.85;;
24739;SDS011;45234;48.148;17.128;2023-02-23T01:23:53;16.75;;;10.43;;
24739;SDS011;45234;48.148;17.128;2023-02-23T01:26:22;16.88;;;9.63;;
24739;SDS011;45234;48.148;17.128;2023-02-23T01:28:54;16.08;;;10.32;;
24739;SDS011;45234;48.148;17.128;2023-02-23T01:31:22;15.20;;;9.75;;
24739;SDS011;45234;48.148;17.128;2023-02-23T01:33:54;15.52;;;10.25;;
24739;SDS011;45234;48.148;17.128;2023-02-23T01:36:22;18.48;;;9.65;;
24739;SDS011;45234;48.148;17.128;2023-02-23T01:38:54;17.38;;;10.23;;
24739;SDS011;45234;48.148;17.128;2023-02-23T01:41:22;14.57;;;9.50;;
24739;SDS011;45234;48.148;17.128;2023-02-23T01:43:58;19.15;;;10.93;;
24739;SDS011;45234;48.148;17.128;2023-02-23T01:46:33;14.88;;;9.38;;
24739;SDS011;45234;48.148;17.128;2023-02-23T01:49:03;16.98;;;10.02;;
24739;SDS011;45234;48.148;17.128;2023-02-23T01:51:36;16.35;;;9.65;;
24739;SDS011;45234;48.148;17.128;2023-02-23T01:54:06;17.02;;;10.73;;
24739;SDS011;45234;48.148;17.128;2023-02-23T01:56:41;18.75;;;10.82;;
24739;SDS011;45234;48.148;17.128;2023-02-23T01:59:14;19.48;;;11.25;;
24739;SDS011;45234;48.148;17.128;2023-02-23T02:01:42;16.92;;;10.52;;
24739;SDS011;45234;48.148;17.128;2023-02-23T02:04:10;18.85;;;10.63;;
24739;SDS011;45234;48.148;17.128;2023-02-23T02:06:42;17.48;;;10.45;;
24739;SDS011;45234;48.148;17.128;2023-02-23T02:09:13;14.55;;;10.00;;
24739;SDS011;45234;48.148;17.128;2023-02-23T02:11:42;18.08;;;10.40;;
24739;SDS011;45234;48.148;17.128;2023-02-23T02:16:59;15.98;;;10.23;;
24739;SDS011;45234;48.148;17.128;2023-02-23T02:25:38;14.38;;;10.52;;
24739;SDS011;45234;48.148;17.128;2023-02-23T02:33:54;19.83;;;11.05;;
24739;SDS011;45234;48.148;17.128;2023-02-23T02:42:53;16.90;;;11.13;;
24739;SDS011;45234;48.148;17.128;2023-02-23T02:45:38;19.67;;;12.10;;
24739;SDS011;45234;48.148;17.128;2023-02-23T02:50:56;14.75;;;10.63;;
24739;SDS011;45234;48.148;17.128;2023-02-23T02:56:36;18.20;;;11.07;;
24739;SDS011;45234;48.148;17.128;2023-02-23T02:59:11;18.48;;;11.10;;
24739;SDS011;45234;48.148;17.128;2023-02-23T03:01:58;19.73;;;11.90;;
24739;SDS011;45234;48.148;17.128;2023-02-23T03:04:43;23.10;;;11.98;;
24739;SDS011;45234;48.148;17.128;2023-02-23T03:07:30;17.92;;;10.50;;
24739;SDS011;45234;48.148;17.128;2023-02-23T03:10:36;19.45;;;10.93;;
24739;SDS011;45234;48.148;17.128;2023-02-23T03:23:46;17.77;;;10.65;;
24739;SDS011;45234;48.148;17.128;2023-02-23T03:27:38;21.77;;;12.00;;
24739;SDS011;45234;48.148;17.128;2023-02-23T03:33:33;15.55;;;10.32;;
24739;SDS011;45234;48.148;17.128;2023-02-23T03:36:36;21.52;;;11.45;;
24739;SDS011;45234;48.148;17.128;2023-02-23T03:39:37;22.63;;;12.20;;
24739;SDS011;45234;48.148;17.128;2023-02-23T03:42:30;23.55;;;11.65;;
24739;SDS011;45234;48.148;17.128;2023-02-23T03:45:20;19.98;;;10.35;;
24739;SDS011;45234;48.148;17.128;2023-02-23T03:48:09;18.08;;;10.88;;
24739;SDS011;45234;48.148;17.128;2023-02-23T03:50:58;20.40;;;11.30;;
24739;SDS011;45234;48.148;17.128;2023-02-23T03:53:52;17.50;;;11.00;;
24739;SDS011;45234;48.148;17.128;2023-02-23T03:56:49;19.27;;;11.27;;
24739;SDS011;45234;48.148;17.128;2023-02-23T03:59:38;19.42;;;10.68;;
24739;SDS011;45234;48.148;17.128;2023-02-23T04:02:38;16.58;;;10.57;;
24739;SDS011;45234;48.148;17.128;2023-02-23T04:05:26;23.35;;;11.50;;
24739;SDS011;45234;48.148;17.128;2023-02-23T04:08:17;19.77;;;10.95;;
24739;SDS011;45234;48.148;17.128;2023-02-23T04:11:10;20.77;;;12.15;;
24739;SDS011;45234;48.148;17.128;2023-02-23T04:14:16;17.70;;;11.75;;
24739;SDS011;45234;48.148;17.128;2023-02-23T04:16:48;19.92;;;11.23;;
24739;SDS011;45234;48.148;17.128;2023-02-23T04:19:16;19.92;;;11.10;;
24739;SDS011;45234;48.148;17.128;2023-02-23T04:21:43;23.73;;;11.32;;
24739;SDS011;45234;48.148;17.128;2023-02-23T04:24:09;17.10;;;11.27;;
24739;SDS011;45234;48.148;17.128;2023-02-23T04:26:36;20.73;;;11.43;;
24739;SDS011;45234;48.148;17.128;2023-02-23T04:29:03;17.92;;;11.18;;
24739;SDS011;45234;48.148;17.128;2023-02-23T04:31:30;18.25;;;11.23;;
24739;SDS011;45234;48.148;17.128;2023-02-23T04:33:57;18.48;;;10.40;;
24739;SDS011;45234;48.148;17.128;2023-02-23T04:36:23;17.45;;;10.35;;
24739;SDS011;45234;48.148;17.128;2023-02-23T04:38:51;19.90;;;10.38;;
24739;SDS011;45234;48.148;17.128;2023-02-23T04:41:18;17.75;;;10.43;;
24739;SDS011;45234;48.148;17.128;2023-02-23T04:43:45;20.17;;;10.82;;
24739;SDS011;45234;48.148;17.128;2023-02-23T04:46:12;23.00;;;11.05;;
24739;SDS011;45234;48.148;17.128;2023-02-23T04:48:38;18.08;;;9.93;;
24739;SDS011;45234;48.148;17.128;2023-02-23T04:51:05;22.67;;;11.02;;
24739;SDS011;45234;48.148;17.128;2023-02-23T04:53:33;17.35;;;10.80;;
24739;SDS011;45234;48.148;17.128;2023-02-23T04:56:00;19.98;;;10.55;;
24739;SDS011;45234;48.148;17.128;2023-02-23T04:58:26;20.00;;;11.05;;
24739;SDS011;45234;48.148;17.128;2023-02-23T05:00:53;20.42;;;11.13;;
24739;SDS011;45234;48.148;17.128;2023-02-23T05:03:20;18.45;;;11.13;;
24739;SDS011;45234;48.148;17.128;2023-02-23T05:05:47;19.35;;;11.65;;
24739;SDS011;45234;48.148;17.128;2023-02-23T05:08:14;19.00;;;11.25;;
24739;SDS011;45234;48.148;17.128;2023-02-23T05:10:40;22.42;;;11.63;;
24739;SDS011;45234;48.148;17.128;2023-02-23T05:13:08;18.35;;;11.32;;
24739;SDS011;45234;48.148;17.128;2023-02-23T05:15:35;22.02;;;10.65;;
24739;SDS011;45234;48.148;17.128;2023-02-23T05:18:03;17.80;;;10.05;;
24739;SDS011;45234;48.148;17.128;2023-02-23T05:20:30;19.05;;;10.20;;
24739;SDS011;45234;48.148;17.128;2023-02-23T05:22:57;26.20;;;10.90;;
24739;SDS011;45234;48.148;17.128;2023-02-23T05:25:24;23.10;;;10.52;;
24739;SDS011;45234;48.148;17.128;2023-02-23T05:27:51;18.42;;;9.80;;
24739;SDS011;45234;48.148;17.128;2023-02-23T05:30:18;22.25;;;11.70;;
24739;SDS011;45234;48.148;17.128;2023-02-23T05:32:44;18.92;;;10.50;;
24739;SDS011;45234;48.148;17.128;2023-02-23T05:35:11;18.10;;;11.23;;
24739;SDS011;45234;48.148;17.128;2023-02-23T05:37:38;22.45;;;11.55;;
24739;SDS011;45234;48.148;17.128;2023-02-23T05:40:05;20.17;;;10.77;;
24739;SDS011;45234;48.148;17.128;2023-02-23T05:42:32;22.30;;;11.07;;
24739;SDS011;45234;48.148;17.128;2023-02-23T05:44:59;21.15;;;10.98;;
24739;SDS011;45234;48.148;17.128;2023-02-23T05:47:27;22.13;;;10.52;;
24739;SDS011;45234;48.148;17.128;2023-02-23T05:49:55;21.75;;;10.88;;
24739;SDS011;45234;48.148;17.128;2023-02-23T05:52:22;21.00;;;11.82;;
24739;SDS011;45234;48.148;17.128;2023-02-23T05:54:49;19.05;;;10.55;;
24739;SDS011;45234;48.148;17.128;2023-02-23T05:57:16;23.23;;;11.18;;
24739;SDS011;45234;48.148;17.128;2023-02-23T05:59:42;19.48;;;10.73;;
24739;SDS011;45234;48.148;17.128;2023-02-23T06:02:09;18.83;;;10.43;;
24739;SDS011;45234;48.148;17.128;2023-02-23T06:04:36;19.65;;;11.05;;
24739;SDS011;45234;48.148;17.128;2023-02-23T06:07:03;21.35;;;10.20;;
24739;SDS011;45234;48.148;17.128;2023-02-23T06:09:30;19.83;;;11.13;;
24739;SDS011;45234;48.148;17.128;2023-02-23T06:11:56;22.30;;;10.63;;
24739;SDS011;45234;48.148;17.128;2023-02-23T06:14:25;21.38;;;10.40;;
24739;SDS011;45234;48.148;17.128;2023-02-23T06:16:52;24.15;;;10.80;;
24739;SDS011;45234;48.148;17.128;2023-02-23T06:19:19;20.02;;;10.52;;
24739;SDS011;45234;48.148;17.128;2023-02-23T06:21:46;21.83;;;10.63;;
24739;SDS011;45234;48.148;17.128;2023-02-23T06:24:13;20.30;;;10.75;;
24739;SDS011;45234;48.148;17.128;2023-02-23T06:26:39;18.05;;;11.48;;
24739;SDS011;45234;48.148;17.128;2023-02-23T06:29:09;24.17;;;10.38;;
24739;SDS011;45234;48.148;17.128;2023-02-23T06:31:37;18.27;;;9.75;;
24739;SDS011;45234;48.148;17.128;2023-02-23T06:34:04;19.85;;;10.38;;
24739;SDS011;45234;48.148;17.128;2023-02-23T06:36:31;20.10;;;10.77;;
24739;SDS011;45234;48.148;17.128;2023-02-23T06:38:58;21.45;;;10.45;;
24739;SDS011;45234;48.148;17.128;2023-02-23T06:41:27;22.80;;;10.77;;
24739;SDS011;45234;48.148;17.128;2023-02-23T06:43:54;21.00;;;10.57;;
24739;SDS011;45234;48.148;17.128;2023-02-23T06:46:20;19.40;;;10.13;;
24739;SDS011;45234;48.148;17.128;2023-02-23T06:48:47;22.80;;;10.40;;
24739;SDS011;45234;48.148;17.128;2023-02-23T06:51:14;16.30;;;9.93;;
24739;SDS011;45234;48.148;17.128;2023-02-23T06:53:42;23.30;;;10.25;;
24739;SDS011;45234;48.148;17.128;2023-02-23T06:56:08;18.73;;;10.57;;
24739;SDS011;45234;48.148;17.128;2023-02-23T06:58:37;21.00;;;10.05;;
24739;SDS011;45234;48.148;17.128;2023-02-23T07:01:08;17.83;;;10.55;;
24739;SDS011;45234;48.148;17.128;2023-02-23T07:03:37;18.52;;;10.15;;
24739;SDS011;45234;48.148;17.128;2023-02-23T07:06:13;17.95;;;9.75;;
24739;SDS011;45234;48.148;17.128;2023-02-23T07:08:39;22.67;;;10.65;;
24739;SDS011;45234;48.148;17.128;2023-02-23T07:11:10;20.90;;;10.50;;
24739;SDS011;45234;48.148;17.128;2023-02-23T07:13:38;25.58;;;10.88;;
24739;SDS011;45234;48.148;17.128;2023-02-23T07:16:06;24.55;;;10.35;;
24739;SDS011;45234;48.148;17.128;2023-02-23T07:18:33;19.80;;;9.93;;
24739;SDS011;45234;48.148;17.128;2023-02-23T07:21:00;18.80;;;11.05;;
24739;SDS011;45234;48.148;17.128;2023-02-23T07:23:27;19.67;;;10.98;;
24739;SDS011;45234;48.148;17.128;2023-02-23T07:25:54;16.30;;;8.90;;
24739;SDS011;45234;48.148;17.128;2023-02-23T07:28:21;17.80;;;10.23;;
24739;SDS011;45234;48.148;17.128;2023-02-23T07:30:49;26.33;;;10.95;;
24739;SDS011;45234;48.148;17.128;2023-02-23T07:33:15;23.08;;;10.40;;
24739;SDS011;45234;48.148;17.128;2023-02-23T07:35:42;21.13;;;10.15;;
24739;SDS011;45234;48.148;17.128;2023-02-23T07:38:09;18.48;;;10.07;;
24739;SDS011;45234;48.148;17.128;2023-02-23T07:40:38;16.42;;;9.73;;
24739;SDS011;45234;48.148;17.128;2023-02-23T07:43:05;18.88;;;10.10;;
24739;SDS011;45234;48.148;17.128;2023-02-23T07:45:32;21.08;;;10.40;;
24739;SDS011;45234;48.148;17.128;2023-02-23T07:47:58;20.33;;;10.93;;
24739;SDS011;45234;48.148;17.128;2023-02-23T07:50:25;19.58;;;10.13;;
24739;SDS011;45234;48.148;17.128;2023-02-23T07:52:52;21.83;;;10.52;;
24739;SDS011;45234;48.148;17.128;2023-02-23T07:55:19;16.60;;;9.73;;
24739;SDS011;45234;48.148;17.128;2023-02-23T07:57:47;18.33;;;10.10;;
24739;SDS011;45234;48.148;17.128;2023-02-23T08:00:14;24.50;;;10.60;;
24739;SDS011;45234;48.148;17.128;2023-02-23T08:02:41;18.63;;;12.10;;
24739;SDS011;45234;48.148;17.128;2023-02-23T08:05:07;20.88;;;11.27;;
24739;SDS011;45234;48.148;17.128;2023-02-23T08:07:34;23.77;;;12.18;;
24739;SDS011;45234;48.148;17.128;2023-02-23T08:10:05;22.73;;;11.90;;
24739;SDS011;45234;48.148;17.128;2023-02-23T08:12:32;18.23;;;9.75;;
24739;SDS011;45234;48.148;17.128;2023-02-23T08:15:02;21.23;;;9.85;;
24739;SDS011;45234;48.148;17.128;2023-02-23T08:17:34;17.45;;;10.57;;
24739;SDS011;45234;48.148;17.128;2023-02-23T08:20:02;18.98;;;10.70;;
24739;SDS011;45234;48.148;17.128;2023-02-23T08:22:30;19.70;;;9.90;;
24739;SDS011;45234;48.148;17.128;2023-02-23T08:25:13;18.50;;;9.10;;
24739;SDS011;45234;48.148;17.128;2023-02-23T08:27:40;19.55;;;10.60;;
24739;SDS011;45234;48.148;17.128;2023-02-23T08:30:07;17.80;;;9.85;;
24739;SDS011;45234;48.148;17.128;2023-02-23T08:32:34;21.55;;;10.65;;
24739;SDS011;45234;48.148;17.128;2023-02-23T08:35:01;15.75;;;10.05;;
24739;SDS011;45234;48.148;17.128;2023-02-23T08:37:29;22.45;;;10.43;;
24739;SDS011;45234;48.148;17.128;2023-02-23T08:39:56;17.38;;;9.95;;
24739;SDS011;45234;48.148;17.128;2023-02-23T08:42:27;24.83;;;11.02;;
24739;SDS011;45234;48.148;17.128;2023-02-23T08:44:54;24.27;;;10.85;;
24739;SDS011;45234;48.148;17.128;2023-02-23T08:47:20;17.55;;;9.75;;
24739;SDS011;45234;48.148;17.128;2023-02-23T08:49:49;16.77;;;9.65;;
24739;SDS011;45234;48.148;17.128;2023-02-23T08:52:16;19.30;;;9.23;;
24739;SDS011;45234;48.148;17.128;2023-02-23T08:54:42;17.50;;;10.30;;
24739;SDS011;45234;48.148;17.128;2023-02-23T08:57:09;23.00;;;10.70;;
24739;SDS011;45234;48.148;17.128;2023-02-23T08:59:37;21.15;;;9.82;;
24739;SDS011;45234;48.148;17.128;2023-02-23T09:02:06;22.20;;;11.25;;
24739;SDS011;45234;48.148;17.128;2023-02-23T09:04:44;20.45;;;10.82;;
24739;SDS011;45234;48.148;17.128;2023-02-23T09:07:15;23.42;;;11.73;;
24739;SDS011;45234;48.148;17.128;2023-02-23T09:09:42;24.17;;;11.20;;
24739;SDS011;45234;48.148;17.128;2023-02-23T09:12:20;30.05;;;11.38;;
24739;SDS011;45234;48.148;17.128;2023-02-23T09:14:46;20.60;;;11.55;;
24739;SDS011;45234;48.148;17.128;2023-02-23T09:17:13;20.25;;;10.88;;
24739;SDS011;45234;48.148;17.128;2023-02-23T09:19:42;18.65;;;11.10;;
24739;SDS011;45234;48.148;17.128;2023-02-23T09:22:09;18.77;;;11.02;;
24739;SDS011;45234;48.148;17.128;2023-02-23T09:24:36;23.30;;;12.05;;
24739;SDS011;45234;48.148;17.128;2023-02-23T09:27:04;23.02;;;12.55;;
24739;SDS011;45234;48.148;17.128;2023-02-23T09:29:37;20.52;;;11.95;;
24739;SDS011;45234;48.148;17.128;2023-02-23T09:32:07;19.98;;;12.60;;
24739;SDS011;45234;48.148;17.128;2023-02-23T09:34:34;23.63;;;12.32;;
24739;SDS011;45234;48.148;17.128;2023-02-23T09:37:04;19.70;;;12.20;;
24739;SDS011;45234;48.148;17.128;2023-02-23T09:39:33;23.58;;;13.15;;
24739;SDS011;45234;48.148;17.128;2023-02-23T09:42:09;22.48;;;13.95;;
24739;SDS011;45234;48.148;17.128;2023-02-23T09:45:03;24.60;;;14.20;;
24739;SDS011;45234;48.148;17.128;2023-02-23T09:47:43;25.95;;;14.05;;
24739;SDS011;45234;48.148;17.128;2023-02-23T09:50:36;20.58;;;13.25;;
24739;SDS011;45234;48.148;17.128;2023-02-23T09:55:59;24.70;;;12.88;;
24739;SDS011;45234;48.148;17.128;2023-02-23T09:58:30;29.45;;;14.38;;
24739;SDS011;45234;48.148;17.128;2023-02-23T10:04:12;20.95;;;13.82;;
24739;SDS011;45234;48.148;17.128;2023-02-23T10:06:53;23.52;;;14.70;;
24739;SDS011;45234;48.148;17.128;2023-02-23T10:15:09;22.38;;;13.63;;
24739;SDS011;45234;48.148;17.128;2023-02-23T10:23:33;27.05;;;14.18;;
24739;SDS011;45234;48.148;17.128;2023-02-23T10:26:10;26.10;;;14.50;;
24739;SDS011;45234;48.148;17.128;2023-02-23T10:28:46;23.75;;;14.48;;
24739;SDS011;45234;48.148;17.128;2023-02-23T10:31:59;22.98;;;13.90;;
24739;SDS011;45234;48.148;17.128;2023-02-23T10:34:14;22.60;;;14.25;;
24739;SDS011;45234;48.148;17.128;2023-02-23T10:37:03;28.42;;;14.55;;
24739;SDS011;45234;48.148;17.128;2023-02-23T10:39:31;26.48;;;14.50;;
24739;SDS011;45234;48.148;17.128;2023-02-23T10:42:00;26.85;;;15.23;;
24739;SDS011;45234;48.148;17.128;2023-02-23T10:44:29;22.80;;;14.23;;
24739;SDS011;45234;48.148;17.128;2023-02-23T10:47:12;21.55;;;14.38;;
24739;SDS011;45234;48.148;17.128;2023-02-23T10:49:49;22.33;;;14.82;;
24739;SDS011;45234;48.148;17.128;2023-02-23T10:52:21;26.17;;;13.63;;
24739;SDS011;45234;48.148;17.128;2023-02-23T10:54:53;22.80;;;15.07;;
24739;SDS011;45234;48.148;17.128;2023-02-23T10:57:30;22.77;;;14.40;;
24739;SDS011;45234;48.148;17.128;2023-02-23T11:00:01;24.40;;;14.88;;
24739;SDS011;45234;48.148;17.128;2023-02-23T11:02:41;25.20;;;15.30;;
24739;SDS011;45234;48.148;17.128;2023-02-23T11:05:26;24.20;;;14.65;;
24739;SDS011;45234;48.148;17.128;2023-02-23T11:08:20;26.95;;;13.95;;
24739;SDS011;45234;48.148;17.128;2023-02-23T11:11:03;23.05;;;13.73;;
24739;SDS011;45234;48.148;17.128;2023-02-23T11:13:51;25.98;;;15.35;;
24739;SDS011;45234;48.148;17.128;2023-02-23T11:16:20;24.58;;;15.15;;
24739;SDS011;45234;48.148;17.128;2023-02-23T11:18:54;23.45;;;15.10;;
24739;SDS011;45234;48.148;17.128;2023-02-23T11:21:32;24.95;;;14.45;;
24739;SDS011;45234;48.148;17.128;2023-02-23T11:24:21;25.48;;;15.60;;
24739;SDS011;45234;48.148;17.128;2023-02-23T11:26:53;19.75;;;14.18;;
24739;SDS011;45234;48.148;17.128;2023-02-23T11:29:35;25.08;;;15.05;;
24739;SDS011;45234;48.148;17.128;2023-02-23T11:32:06;27.38;;;16.25;;
24739;SDS011;45234;48.148;17.128;2023-02-23T11:34:38;23.33;;;15.35;;
24739;SDS011;45234;48.148;17.128;2023-02-23T11:42:33;21.15;;;13.48;;
24739;SDS011;45234;48.148;17.128;2023-02-23T11:47:39;29.55;;;15.50;;
24739;SDS011;45234;48.148;17.128;2023-02-23T11:55:45;23.23;;;14.83;;
24739;SDS011;45234;48.148;17.128;2023-02-23T11:58:22;23.05;;;15.77;;
24739;SDS011;45234;48.148;17.128;2023-02-23T12:01:07;24.10;;;15.23;;
24739;SDS011;45234;48.148;17.128;2023-02-23T12:03:52;23.15;;;16.10;;
24739;SDS011;45234;48.148;17.128;2023-02-23T12:09:41;22.83;;;14.48;;
24739;SDS011;45234;48.148;17.128;2023-02-23T12:11:57;27.30;;;14.35;;
24739;SDS011;45234;48.148;17.128;2023-02-23T12:14:39;21.42;;;15.27;;
24739;SDS011;45234;48.148;17.128;2023-02-23T12:17:25;23.10;;;14.57;;
24739;SDS011;45234;48.148;17.128;2023-02-23T12:20:17;22.08;;;15.85;;
24739;SDS011;45234;48.148;17.128;2023-02-23T12:23:01;23.85;;;14.57;;
24739;SDS011;45234;48.148;17.128;2023-02-23T12:25:35;24.02;;;14.02;;
24739;SDS011;45234;48.148;17.128;2023-02-23T12:30:49;26.17;;;14.35;;
24739;SDS011;45234;48.148;17.128;2023-02-23T12:33:28;22.88;;;14.15;;
24739;SDS011;45234;48.148;17.128;2023-02-23T12:36:51;23.23;;;13.88;;
24739;SDS011;45234;48.148;17.128;2023-02-23T12:47:20;22.40;;;14.43;;
24739;SDS011;45234;48.148;17.128;2023-02-23T12:49:54;24.48;;;15.40;;
24739;SDS011;45234;48.148;17.128;2023-02-23T12:52:33;24.13;;;15.10;;
24739;SDS011;45234;48.148;17.128;2023-02-23T12:55:08;23.77;;;14.93;;
24739;SDS011;45234;48.148;17.128;2023-02-23T13:11:46;28.58;;;15.32;;
24739;SDS011;45234;48.148;17.128;2023-02-23T13:16:41;23.15;;;14.88;;
24739;SDS011;45234;48.148;17.128;2023-02-23T13:19:19;28.55;;;16.60;;
24739;SDS011;45234;48.148;17.128;2023-02-23T13:21:53;21.35;;;14.93;;
24739;SDS011;45234;48.148;17.128;2023-02-23T13:24:28;27.00;;;17.77;;
24739;SDS011;45234;48.148;17.128;2023-02-23T13:29:45;26.70;;;20.98;;
24739;SDS011;45234;48.148;17.128;2023-02-23T13:32:18;27.15;;;18.73;;
24739;SDS011;45234;48.148;17.128;2023-02-23T13:37:17;26.00;;;18.45;;
24739;SDS011;45234;48.148;17.128;2023-02-23T13:45:49;23.63;;;15.70;;
24739;SDS011;45234;48.148;17.128;2023-02-23T13:49:14;24.90;;;17.02;;
24739;SDS011;45234;48.148;17.128;2023-02-23T13:54:04;26.65;;;16.08;;
24739;SDS011;45234;48.148;17.128;2023-02-23T13:56:55;22.38;;;15.10;;
24739;SDS011;45234;48.148;17.128;2023-02-23T13:59:27;25.63;;;15.55;;
24739;SDS011;45234;48.148;17.128;2023-02-23T14:04:56;29.77;;;15.57;;
24739;SDS011;45234;48.148;17.128;2023-02-23T14:07:40;26.58;;;15.75;;
24739;SDS011;45234;48.148;17.128;2023-02-23T14:10:16;24.02;;;16.15;;
24739;SDS011;45234;48.148;17.128;2023-02-23T14:15:49;22.50;;;14.60;;
24739;SDS011;45234;48.148;17.128;2023-02-23T14:18:35;28.58;;;16.25;;
24739;SDS011;45234;48.148;17.128;2023-02-23T14:21:31;22.15;;;15.35;;
24739;SDS011;45234;48.148;17.128;2023-02-23T14:26:35;24.20;;;15.52;;
24739;SDS011;45234;48.148;17.128;2023-02-23T14:34:46;25.33;;;16.77;;
24739;SDS011;45234;48.148;17.128;2023-02-23T14:37:22;27.13;;;15.75;;
24739;SDS011;45234;48.148;17.128;2023-02-23T14:42:37;24.20;;;15.43;;
24739;SDS011;45234;48.148;17.128;2023-02-23T14:45:38;24.92;;;15.27;;
24739;SDS011;45234;48.148;17.128;2023-02-23T14:48:05;24.00;;;15.35;;
24739;SDS011;45234;48.148;17.128;2023-02-23T14:50:37;25.13;;;16.00;;
24739;SDS011;45234;48.148;17.128;2023-02-23T14:53:06;21.33;;;14.90;;
24739;SDS011;45234;48.148;17.128;2023-02-23T14:55:45;24.52;;;15.48;;
24739;SDS011;45234;48.148;17.128;2023-02-23T14:58:26;30.55;;;15.98;;
24739;SDS011;45234;48.148;17.128;2023-02-23T15:00:55;24.10;;;14.15;;
24739;SDS011;45234;48.148;17.128;2023-02-23T15:03:22;25.92;;;14.82;;
24739;SDS011;45234;48.148;17.128;2023-02-23T15:05:59;21.70;;;13.90;;
24739;SDS011;45234;48.148;17.128;2023-02-23T15:08:28;24.25;;;14.32;;
24739;SDS011;45234;48.148;17.128;2023-02-23T15:10:59;25.08;;;15.30;;
24739;SDS011;45234;48.148;17.128;2023-02-23T15:13:46;23.50;;;13.95;;
24739;SDS011;45234;48.148;17.128;2023-02-23T15:16:21;24.83;;;14.30;;
24739;SDS011;45234;48.148;17.128;2023-02-23T15:18:54;23.33;;;13.50;;
24739;SDS011;45234;48.148;17.128;2023-02-23T15:21:23;24.92;;;13.98;;
24739;SDS011;45234;48.148;17.128;2023-02-23T15:23:52;29.70;;;15.88;;
24739;SDS011;45234;48.148;17.128;2023-02-23T15:26:32;20.73;;;14.73;;
24739;SDS011;45234;48.148;17.128;2023-02-23T15:31:40;19.85;;;13.07;;
24739;SDS011;45234;48.148;17.128;2023-02-23T15:34:24;21.38;;;13.57;;
24739;SDS011;45234;48.148;17.128;2023-02-23T15:36:56;20.63;;;14.50;;
24739;SDS011;45234;48.148;17.128;2023-02-23T15:39:44;22.48;;;13.82;;
24739;SDS011;45234;48.148;17.128;2023-02-23T15:42:22;22.95;;;13.88;;
24739;SDS011;45234;48.148;17.128;2023-02-23T15:47:20;24.48;;;13.55;;
24739;SDS011;45234;48.148;17.128;2023-02-23T15:49:59;24.17;;;13.05;;
24739;SDS011;45234;48.148;17.128;2023-02-23T15:52:30;20.92;;;13.65;;
24739;SDS011;45234;48.148;17.128;2023-02-23T15:55:01;25.52;;;12.77;;
24739;SDS011;45234;48.148;17.128;2023-02-23T15:57:40;23.75;;;12.35;;
24739;SDS011;45234;48.148;17.128;2023-02-23T16:00:18;25.35;;;13.13;;
24739;SDS011;45234;48.148;17.128;2023-02-23T16:02:59;21.42;;;14.10;;
24739;SDS011;45234;48.148;17.128;2023-02-23T16:05:29;20.92;;;12.98;;
24739;SDS011;45234;48.148;17.128;2023-02-23T16:08:18;22.90;;;13.15;;
24739;SDS011;45234;48.148;17.128;2023-02-23T16:10:48;24.52;;;13.60;;
24739;SDS011;45234;48.148;17.128;2023-02-23T16:13:20;26.90;;;13.23;;
24739;SDS011;45234;48.148;17.128;2023-02-23T16:15:47;21.80;;;11.98;;
24739;SDS011;45234;48.148;17.128;2023-02-23T16:18:16;22.52;;;13.02;;
24739;SDS011;45234;48.148;17.128;2023-02-23T16:20:46;24.33;;;13.52;;
24739;SDS011;45234;48.148;17.128;2023-02-23T16:23:25;19.48;;;11.95;;
24739;SDS011;45234;48.148;17.128;2023-02-23T16:25:59;18.17;;;11.65;;
24739;SDS011;45234;48.148;17.128;2023-02-23T16:28:39;19.83;;;12.07;;
24739;SDS011;45234;48.148;17.128;2023-02-23T16:31:09;26.42;;;13.10;;
24739;SDS011;45234;48.148;17.128;2023-02-23T16:33:49;22.25;;;11.88;;
24739;SDS011;45234;48.148;17.128;2023-02-23T16:36:33;22.05;;;11.95;;
24739;SDS011;45234;48.148;17.128;2023-02-23T16:39:05;27.67;;;13.55;;
24739;SDS011;45234;48.148;17.128;2023-02-23T16:41:35;20.50;;;12.27;;
24739;SDS011;45234;48.148;17.128;2023-02-23T16:44:04;23.30;;;13.77;;
24739;SDS011;45234;48.148;17.128;2023-02-23T16:46:33;32.22;;;13.40;;
24739;SDS011;45234;48.148;17.128;2023-02-23T16:49:26;22.73;;;12.00;;
24739;SDS011;45234;48.148;17.128;2023-02-23T16:51:55;18.45;;;12.75;;
24739;SDS011;45234;48.148;17.128;2023-02-23T16:54:22;21.33;;;12.52;;
24739;SDS011;45234;48.148;17.128;2023-02-23T16:56:49;29.08;;;13.13;;
24739;SDS011;45234;48.148;17.128;2023-02-23T16:59:20;22.70;;;12.98;;
24739;SDS011;45234;48.148;17.128;2023-02-23T17:01:48;25.30;;;12.77;;
24739;SDS011;45234;48.148;17.128;2023-02-23T17:04:18;19.33;;;12.23;;